Aérodrome :
LOGIN :

S'inscrire | Disclaimer

   EN    FR    IT 

 










Légende :    VFR   VFR Marginal   IFR   IFR Intensif   IFR Très Intensif
Visi : 
Plafond : 
>= 8 km
>= 3000ft
5 à 8 km
1000 à 3000 ft
1500m à 5 km
500 à 1000 ft
800 à 1500m
200 à 500 ft
< 800m
< 200 ft
Symboles :   Orages  Brouillard  Fortes neiges  Fortes précipitations  Vent > 20 kt
SIGMETs :   Divers  Orages  Givrage  Turbulence  Onde Orograph.  Cendres Volcan.






- Altitude de l'aérodrome : 913 ft


LFSX - Luxeuil

DERNIER METAR :
  • 221500Z AUTO 08005KT 050V110 9999 ///TCU 26/13 Q1011

METARs EXPIRÉS :
  • 221430Z AUTO 31005KT 280V020 CAVOK 26/13 Q1012
  • 221400Z AUTO VRB03KT CAVOK 26/14 Q1012
  • 221330Z AUTO 33003KT 250V010 CAVOK 26/14 Q1012
  • 221300Z AUTO 01004KT 300V060 CAVOK 25/13 Q1012
  • 221230Z AUTO 05003KT 340V120 CAVOK 26/12 Q1012
  • 221200Z AUTO 04004KT 330V090 CAVOK 25/13 Q1013

TAF TAF LFSX
Valide du 22 à 15h jusqu'au 23 à 15h UTC


221400Z 2215/2315 32005KT CAVOK
TEMPO 2215/2219 4500 -SHRA BKN045TCU
TEMPO 2311/2315 3000 SHRA BKN035TCU



MET'MAP, la Météo Aéronautique d'un coup d'oeil ! - Copyright ORBIFLY Décembre 2007 - Disclaimer

ORBIFLY MET'MAP TEAM :

Programmation & Développement : Alexandra Zaïnal
Sur une idée originale de : Baudouin d'Aumeries
Soutien technique & logistique : Manuel Goepfert
Assistance : Marc-Olivier Méhu

Contact : metmap@orbifly.com




SOURCES & CREDITS :

   NOAA